sensor_id;sensor_type;location;lat;lon;timestamp;pressure;altitude;pressure_sealevel;temperature;humidity
32759;BME280;19125;52.360;9.974;2023-03-22T00:02:23;17305.75;;;-145.17;66.84
32759;BME280;19125;52.360;9.974;2023-03-22T00:04:50;16307.41;;;-145.17;66.99
32759;BME280;19125;52.360;9.974;2023-03-22T00:07:16;15558.84;;;-145.17;67.33
32759;BME280;19125;52.360;9.974;2023-03-22T00:09:41;14560.94;;;-145.17;66.99
32759;BME280;19125;52.360;9.974;2023-03-22T00:12:06;14062.09;;;-145.17;67.15
32759;BME280;19125;52.360;9.974;2023-03-22T00:14:32;13313.94;;;-145.17;67.17
32759;BME280;19125;52.360;9.974;2023-03-22T00:16:57;12815.25;;;-145.17;67.29
32759;BME280;19125;52.360;9.974;2023-03-22T00:19:23;12316.63;;;-145.17;67.40
32759;BME280;19125;52.360;9.974;2023-03-22T00:21:48;11818.06;;;-145.17;67.56
32759;BME280;19125;52.360;9.974;2023-03-22T00:24:15;11319.56;;;-145.17;67.89
32759;BME280;19125;52.360;9.974;2023-03-22T00:26:41;10821.13;;;-145.17;67.52
32759;BME280;19125;52.360;9.974;2023-03-22T00:29:06;10571.94;;;-145.17;67.67
32759;BME280;19125;52.360;9.974;2023-03-22T00:31:31;10073.63;;;-145.17;67.77
32759;BME280;19125;52.360;9.974;2023-03-22T00:33:57;9824.47;;;-145.17;68.03
32759;BME280;19125;52.360;9.974;2023-03-22T00:36:22;9077.13;;;-145.17;68.31
32759;BME280;19125;52.360;9.974;2023-03-22T00:38:47;8828.06;;;-145.17;68.26
32759;BME280;19125;52.360;9.974;2023-03-22T00:41:15;8329.94;;;-145.17;68.24
32759;BME280;19125;52.360;9.974;2023-03-22T00:43:41;7831.91;;;-145.17;67.89
32759;BME280;19125;52.360;9.974;2023-03-22T00:46:08;7831.91;;;-145.17;68.06
32759;BME280;19125;52.360;9.974;2023-03-22T00:48:33;7831.91;;;-145.17;67.98
32759;BME280;19125;52.360;9.974;2023-03-22T00:50:59;7582.91;;;-145.17;67.88
32759;BME280;19125;52.360;9.974;2023-03-22T00:53:25;7582.91;;;-145.17;67.42
32759;BME280;19125;52.360;9.974;2023-03-22T00:55:50;7831.91;;;-145.17;67.83
32759;BME280;19125;52.360;9.974;2023-03-22T00:58:15;7831.91;;;-145.17;67.77
32759;BME280;19125;52.360;9.974;2023-03-22T01:00:41;8080.91;;;-145.17;67.74
32759;BME280;19125;52.360;9.974;2023-03-22T01:03:08;8080.91;;;-145.17;67.67
32759;BME280;19125;52.360;9.974;2023-03-22T01:05:33;8329.94;;;-145.17;67.78
32759;BME280;19125;52.360;9.974;2023-03-22T01:08:00;8329.94;;;-145.17;67.92
32759;BME280;19125;52.360;9.974;2023-03-22T01:10:43;8080.91;;;-145.17;67.94
32759;BME280;19125;52.360;9.974;2023-03-22T01:13:09;7831.91;;;-145.17;67.79
32759;BME280;19125;52.360;9.974;2023-03-22T01:15:35;7333.91;;;-145.17;68.08
32759;BME280;19125;52.360;9.974;2023-03-22T01:18:01;7084.94;;;-145.17;68.13
32759;BME280;19125;52.360;9.974;2023-03-22T01:20:27;6587.06;;;-145.17;68.25
32759;BME280;19125;52.360;9.974;2023-03-22T01:22:52;6089.22;;;-145.17;68.01
32759;BME280;19125;52.360;9.974;2023-03-22T01:25:17;5840.34;;;-145.17;68.03
32759;BME280;19125;52.360;9.974;2023-03-22T01:27:43;5342.63;;;-145.17;68.37
32759;BME280;19125;52.360;9.974;2023-03-22T01:30:09;4844.97;;;-145.17;67.87
32759;BME280;19125;52.360;9.974;2023-03-22T01:32:36;4596.16;;;-145.17;68.13
32759;BME280;19125;52.360;9.974;2023-03-22T01:35:03;4347.34;;;-145.17;68.12
32759;BME280;19125;52.360;9.974;2023-03-22T01:37:29;4098.59;;;-145.17;68.42
32759;BME280;19125;52.360;9.974;2023-03-22T01:39:54;4596.16;;;-145.17;68.34
32759;BME280;19125;52.360;9.974;2023-03-22T01:42:20;4347.34;;;-145.17;67.90
32759;BME280;19125;52.360;9.974;2023-03-22T01:50:08;5342.63;;;-145.17;67.87
32759;BME280;19125;52.360;9.974;2023-03-22T01:52:34;5591.47;;;-145.17;68.15
32759;BME280;19125;52.360;9.974;2023-03-22T01:55:03;6089.22;;;-145.17;67.93
32759;BME280;19125;52.360;9.974;2023-03-22T01:57:28;6836.00;;;-145.17;67.48
32759;BME280;19125;52.360;9.974;2023-03-22T01:59:57;7582.91;;;-145.17;67.29
32759;BME280;19125;52.360;9.974;2023-03-22T02:02:23;8080.91;;;-145.17;67.24
32759;BME280;19125;52.360;9.974;2023-03-22T02:04:49;8579.00;;;-145.17;66.88
32759;BME280;19125;52.360;9.974;2023-03-22T02:07:16;9326.22;;;-145.17;66.99
32759;BME280;19125;52.360;9.974;2023-03-22T02:09:50;9824.47;;;-145.17;66.99
32759;BME280;19125;52.360;9.974;2023-03-22T02:15:31;11319.56;;;-145.17;66.95
32759;BME280;19125;52.360;9.974;2023-03-22T02:21:23;12316.63;;;-145.17;66.78
32759;BME280;19125;52.360;9.974;2023-03-22T02:24:26;13064.59;;;-145.17;66.74
32759;BME280;19125;52.360;9.974;2023-03-22T02:27:17;13563.31;;;-145.17;66.67
32759;BME280;19125;52.360;9.974;2023-03-22T02:30:01;14810.38;;;-145.17;66.33
32759;BME280;19125;52.360;9.974;2023-03-22T02:33:06;15808.34;;;-145.17;65.96
32759;BME280;19125;52.360;9.974;2023-03-22T02:49:57;21051.81;;;-145.17;65.80
32759;BME280;19125;52.360;9.974;2023-03-22T02:53:02;21551.56;;;-145.17;65.74
32759;BME280;19125;52.360;9.974;2023-03-22T02:55:34;21551.56;;;-145.17;65.74
32759;BME280;19125;52.360;9.974;2023-03-22T02:58:06;21551.56;;;-145.17;65.75
32759;BME280;19125;52.360;9.974;2023-03-22T03:00:35;21301.69;;;-145.17;65.78
32759;BME280;19125;52.360;9.974;2023-03-22T03:03:09;21551.56;;;-145.17;65.92
32759;BME280;19125;52.360;9.974;2023-03-22T03:05:40;21051.81;;;-145.17;66.34
32759;BME280;19125;52.360;9.974;2023-03-22T03:08:09;20552.13;;;-145.17;65.98
32759;BME280;19125;52.360;9.974;2023-03-22T03:10:38;20052.50;;;-145.17;66.28
32759;BME280;19125;52.360;9.974;2023-03-22T03:13:04;19802.72;;;-145.17;66.29
32759;BME280;19125;52.360;9.974;2023-03-22T03:15:29;19802.72;;;-145.17;66.15
32759;BME280;19125;52.360;9.974;2023-03-22T03:23:53;20552.13;;;-145.17;66.11
32759;BME280;19125;52.360;9.974;2023-03-22T03:32:20;21301.69;;;-145.17;66.36
32759;BME280;19125;52.360;9.974;2023-03-22T03:35:00;21301.69;;;-145.17;66.21
32759;BME280;19125;52.360;9.974;2023-03-22T03:37:39;21051.81;;;-145.17;66.31
32759;BME280;19125;52.360;9.974;2023-03-22T03:40:16;21301.69;;;-145.17;66.35
32759;BME280;19125;52.360;9.974;2023-03-22T03:42:46;21051.81;;;-145.17;66.43
32759;BME280;19125;52.360;9.974;2023-03-22T03:45:14;20801.97;;;-145.17;66.06
32759;BME280;19125;52.360;9.974;2023-03-22T03:47:42;20552.13;;;-145.17;66.32
32759;BME280;19125;52.360;9.974;2023-03-22T03:50:10;20552.13;;;-145.17;66.11
32759;BME280;19125;52.360;9.974;2023-03-22T03:52:37;20302.31;;;-145.17;66.54
32759;BME280;19125;52.360;9.974;2023-03-22T03:55:03;20052.50;;;-145.17;66.33
32759;BME280;19125;52.360;9.974;2023-03-22T03:57:28;19552.97;;;-145.17;66.23
32759;BME280;19125;52.360;9.974;2023-03-22T03:59:54;19552.97;;;-145.17;66.26
32759;BME280;19125;52.360;9.974;2023-03-22T04:02:19;18803.75;;;-145.17;66.80
32759;BME280;19125;52.360;9.974;2023-03-22T04:04:44;18304.34;;;-145.17;66.86
32759;BME280;19125;52.360;9.974;2023-03-22T04:07:10;18054.69;;;-145.17;66.69
32759;BME280;19125;52.360;9.974;2023-03-22T04:09:37;18304.34;;;-145.17;66.73
32759;BME280;19125;52.360;9.974;2023-03-22T04:12:03;18554.03;;;-145.17;66.58
32759;BME280;19125;52.360;9.974;2023-03-22T04:14:29;18554.03;;;-145.17;66.64
32759;BME280;19125;52.360;9.974;2023-03-22T04:16:54;18554.03;;;-145.17;66.58
32759;BME280;19125;52.360;9.974;2023-03-22T04:19:21;18803.75;;;-145.17;66.80
32759;BME280;19125;52.360;9.974;2023-03-22T04:21:46;18554.03;;;-145.17;66.68
32759;BME280;19125;52.360;9.974;2023-03-22T04:24:13;18803.75;;;-145.17;66.70
32759;BME280;19125;52.360;9.974;2023-03-22T04:26:38;18803.75;;;-145.17;66.62
32759;BME280;19125;52.360;9.974;2023-03-22T04:29:04;18304.34;;;-145.17;66.45
32759;BME280;19125;52.360;9.974;2023-03-22T04:31:31;18054.69;;;-145.17;66.30
32759;BME280;19125;52.360;9.974;2023-03-22T04:33:57;18054.69;;;-145.17;66.64
32759;BME280;19125;52.360;9.974;2023-03-22T04:36:25;17805.03;;;-145.17;66.99
32759;BME280;19125;52.360;9.974;2023-03-22T04:38:55;17555.38;;;-145.17;66.44
32759;BME280;19125;52.360;9.974;2023-03-22T04:41:21;17555.38;;;-145.17;66.39
32759;BME280;19125;52.360;9.974;2023-03-22T04:43:46;17805.03;;;-145.17;66.86
32759;BME280;19125;52.360;9.974;2023-03-22T04:46:15;17555.38;;;-145.17;66.91
32759;BME280;19125;52.360;9.974;2023-03-22T04:48:41;17805.03;;;-145.17;66.54
32759;BME280;19125;52.360;9.974;2023-03-22T04:51:08;17805.03;;;-145.17;66.45
32759;BME280;19125;52.360;9.974;2023-03-22T04:53:34;17805.03;;;-145.17;66.49
32759;BME280;19125;52.360;9.974;2023-03-22T04:56:04;17805.03;;;-145.17;66.43
32759;BME280;19125;52.360;9.974;2023-03-22T04:58:32;18054.69;;;-145.17;66.91
32759;BME280;19125;52.360;9.974;2023-03-22T05:00:57;18304.34;;;-145.17;66.84
32759;BME280;19125;52.360;9.974;2023-03-22T05:03:23;18554.03;;;-145.17;66.29
32759;BME280;19125;52.360;9.974;2023-03-22T05:05:51;18554.03;;;-145.17;66.50
32759;BME280;19125;52.360;9.974;2023-03-22T05:08:19;18803.75;;;-145.17;66.55
32759;BME280;19125;52.360;9.974;2023-03-22T05:10:45;19303.19;;;-145.17;66.56
32759;BME280;19125;52.360;9.974;2023-03-22T05:13:10;20052.50;;;-145.17;66.19
32759;BME280;19125;52.360;9.974;2023-03-22T05:15:37;20801.97;;;-145.17;66.11
32759;BME280;19125;52.360;9.974;2023-03-22T05:18:03;21551.56;;;-145.17;66.32
32759;BME280;19125;52.360;9.974;2023-03-22T05:20:29;22301.28;;;-145.17;66.26
32759;BME280;19125;52.360;9.974;2023-03-22T05:22:54;22801.19;;;-145.17;65.74
32759;BME280;19125;52.360;9.974;2023-03-22T05:25:21;23551.19;;;-145.17;65.83
32759;BME280;19125;52.360;9.974;2023-03-22T05:27:46;23801.22;;;-145.17;65.48
32759;BME280;19125;52.360;9.974;2023-03-22T05:30:15;24051.25;;;-145.17;66.04
32759;BME280;19125;52.360;9.974;2023-03-22T05:32:40;24301.31;;;-145.17;65.55
32759;BME280;19125;52.360;9.974;2023-03-22T05:35:08;24801.47;;;-145.17;65.65
32759;BME280;19125;52.360;9.974;2023-03-22T05:37:34;25051.56;;;-145.17;65.49
32759;BME280;19125;52.360;9.974;2023-03-22T05:39:59;25551.84;;;-145.17;65.61
32759;BME280;19125;52.360;9.974;2023-03-22T05:42:25;26052.16;;;-145.17;65.27
32759;BME280;19125;52.360;9.974;2023-03-22T05:44:50;26552.53;;;-145.17;65.51
32759;BME280;19125;52.360;9.974;2023-03-22T05:47:15;27053.00;;;-145.17;65.11
32759;BME280;19125;52.360;9.974;2023-03-22T05:49:41;27303.25;;;-145.17;65.17
32759;BME280;19125;52.360;9.974;2023-03-22T05:52:07;27803.78;;;-145.17;65.26
32759;BME280;19125;52.360;9.974;2023-03-22T05:54:33;28304.41;;;-145.17;65.24
32759;BME280;19125;52.360;9.974;2023-03-22T05:56:58;29556.22;;;-145.17;64.90
32759;BME280;19125;52.360;9.974;2023-03-22T05:59:23;30557.94;;;-145.17;65.15
32759;BME280;19125;52.360;9.974;2023-03-22T06:01:49;32061.03;;;-145.17;64.63
32759;BME280;19125;52.360;9.974;2023-03-22T06:04:15;33564.69;;;-145.17;64.61
32759;BME280;19125;52.360;9.974;2023-03-22T06:06:40;35319.69;;;-145.17;64.82
32759;BME280;19125;52.360;9.974;2023-03-22T06:09:06;36573.75;;;-145.17;64.09
32759;BME280;19125;52.360;9.974;2023-03-22T06:11:31;38330.09;;;-145.17;64.40
32759;BME280;19125;52.360;9.974;2023-03-22T06:13:59;39585.13;;;-145.17;64.20
32759;BME280;19125;52.360;9.974;2023-03-22T06:16:26;42850.03;;;-145.17;63.51
32759;BME280;19125;52.360;9.974;2023-03-22T06:18:52;46872.09;;;-145.17;63.46
32759;BME280;19125;52.360;9.974;2023-03-22T06:21:17;49891.34;;;-145.17;63.10
32759;BME280;19125;52.360;9.974;2023-03-22T06:23:43;52157.31;;;-145.17;63.16
32759;BME280;19125;52.360;9.974;2023-03-22T06:26:09;54676.56;;;-145.17;62.96
32759;BME280;19125;52.360;9.974;2023-03-22T06:28:36;55432.63;;;-145.17;62.74
32759;BME280;19125;52.360;9.974;2023-03-22T06:31:08;58962.94;;;-145.17;62.42
32759;BME280;19125;52.360;9.974;2023-03-22T06:33:35;60476.91;;;-145.17;62.52
32759;BME280;19125;52.360;9.974;2023-03-22T06:36:01;62496.41;;;-145.17;62.44
32759;BME280;19125;52.360;9.974;2023-03-22T06:38:27;66933.44;;;-145.17;62.03
32759;BME280;19125;52.360;9.974;2023-03-22T06:40:53;69829.63;;;-145.17;61.85
32759;BME280;19125;52.360;9.974;2023-03-22T06:43:18;71782.69;;;-145.17;61.69
32759;BME280;19125;52.360;9.974;2023-03-22T06:45:47;72735.84;;;-145.17;61.74
32759;BME280;19125;52.360;9.974;2023-03-22T06:48:13;74816.97;;;-145.17;61.74
32759;BME280;19125;52.360;9.974;2023-03-22T06:50:39;76788.31;;;-145.17;61.19
32759;BME280;19125;52.360;9.974;2023-03-22T06:53:07;78334.78;;;-145.17;60.88
32759;BME280;19125;52.360;9.974;2023-03-22T06:55:32;79852.16;;;-145.17;61.04
32759;BME280;19125;52.360;9.974;2023-03-22T06:57:59;82147.09;;;-145.17;60.40
32759;BME280;19125;52.360;9.974;2023-03-22T07:00:25;83495.34;;;-145.17;59.97
32759;BME280;19125;52.360;9.974;2023-03-22T07:02:51;84542.53;;;-145.17;59.64
32759;BME280;19125;52.360;9.974;2023-03-22T07:05:16;85484.84;;;-145.17;59.30
32759;BME280;19125;52.360;9.974;2023-03-22T07:07:41;85972.94;;;-145.17;59.29
32759;BME280;19125;52.360;9.974;2023-03-22T07:10:07;86357.91;;;-145.17;58.67
32759;BME280;19125;52.360;9.974;2023-03-22T07:12:32;86604.00;;;-145.17;58.52
32759;BME280;19125;52.360;9.974;2023-03-22T07:14:58;86969.19;;;-145.17;58.24
32759;BME280;19125;52.360;9.974;2023-03-22T07:17:23;87120.03;;;-145.17;57.74
32759;BME280;19125;52.360;9.974;2023-03-22T07:19:49;87203.38;;;-145.17;57.85
32759;BME280;19125;52.360;9.974;2023-03-22T07:22:14;87227.22;;;-145.17;58.04
32759;BME280;19125;52.360;9.974;2023-03-22T07:24:39;87221.25;;;-145.17;57.99
32759;BME280;19125;52.360;9.974;2023-03-22T07:27:05;87209.34;;;-145.17;57.83
32759;BME280;19125;52.360;9.974;2023-03-22T07:29:31;87266.91;;;-145.17;57.91
32759;BME280;19125;52.360;9.974;2023-03-22T07:31:57;87211.31;;;-145.17;57.70
32759;BME280;19125;52.360;9.974;2023-03-22T07:34:22;87221.25;;;-145.17;57.89
32759;BME280;19125;52.360;9.974;2023-03-22T07:36:48;87207.34;;;-145.17;57.75
32759;BME280;19125;52.360;9.974;2023-03-22T07:39:13;87197.44;;;-145.17;57.33
32759;BME280;19125;52.360;9.974;2023-03-22T07:41:39;87215.31;;;-145.17;57.34
32759;BME280;19125;52.360;9.974;2023-03-22T07:44:05;87209.34;;;-145.17;56.96
32759;BME280;19125;52.360;9.974;2023-03-22T07:46:31;87235.16;;;-145.17;56.72
32759;BME280;19125;52.360;9.974;2023-03-22T07:48:56;87266.91;;;-145.17;55.90
32759;BME280;19125;52.360;9.974;2023-03-22T07:51:22;87262.94;;;-145.17;55.40
32759;BME280;19125;52.360;9.974;2023-03-22T07:53:47;87288.75;;;-145.17;54.95
32759;BME280;19125;52.360;9.974;2023-03-22T07:56:13;87258.97;;;-145.17;54.38
32759;BME280;19125;52.360;9.974;2023-03-22T07:58:38;87270.88;;;-145.17;53.77
32759;BME280;19125;52.360;9.974;2023-03-22T08:01:05;87300.66;;;-145.17;53.58
32759;BME280;19125;52.360;9.974;2023-03-22T08:03:34;87268.88;;;-145.17;53.74
32759;BME280;19125;52.360;9.974;2023-03-22T08:06:01;87284.78;;;-145.17;53.46
32759;BME280;19125;52.360;9.974;2023-03-22T08:08:27;87270.88;;;-145.17;53.39
32759;BME280;19125;52.360;9.974;2023-03-22T08:10:52;87235.16;;;-145.17;53.36
32759;BME280;19125;52.360;9.974;2023-03-22T08:13:17;87183.53;;;-145.17;52.85
32759;BME280;19125;52.360;9.974;2023-03-22T08:15:43;87159.72;;;-145.17;52.48
32759;BME280;19125;52.360;9.974;2023-03-22T08:18:08;87129.94;;;-145.17;52.18
32759;BME280;19125;52.360;9.974;2023-03-22T08:20:36;87070.41;;;-145.17;51.54
32759;BME280;19125;52.360;9.974;2023-03-22T08:23:02;87028.72;;;-145.17;51.09
32759;BME280;19125;52.360;9.974;2023-03-22T08:25:27;86994.97;;;-145.17;50.44
32759;BME280;19125;52.360;9.974;2023-03-22T08:27:53;86967.19;;;-145.17;50.16
32759;BME280;19125;52.360;9.974;2023-03-22T08:30:19;87006.88;;;-145.17;49.96
32759;BME280;19125;52.360;9.974;2023-03-22T08:32:46;86953.31;;;-145.17;50.20
32759;BME280;19125;52.360;9.974;2023-03-22T08:35:11;86998.94;;;-145.17;50.33
32759;BME280;19125;52.360;9.974;2023-03-22T08:37:36;87006.88;;;-145.17;49.74
32759;BME280;19125;52.360;9.974;2023-03-22T08:40:02;86993.00;;;-145.17;50.12
32759;BME280;19125;52.360;9.974;2023-03-22T08:42:31;86989.03;;;-145.17;50.38
32759;BME280;19125;52.360;9.974;2023-03-22T08:44:56;86989.03;;;-145.17;50.14
32759;BME280;19125;52.360;9.974;2023-03-22T08:47:22;87014.84;;;-145.17;49.71
32759;BME280;19125;52.360;9.974;2023-03-22T08:49:47;86998.94;;;-145.17;49.75
32759;BME280;19125;52.360;9.974;2023-03-22T08:52:12;87024.75;;;-145.17;49.90
32759;BME280;19125;52.360;9.974;2023-03-22T08:54:38;87076.34;;;-145.17;49.73
32759;BME280;19125;52.360;9.974;2023-03-22T08:57:03;87030.72;;;-145.17;50.07
32759;BME280;19125;52.360;9.974;2023-03-22T08:59:29;87000.94;;;-145.17;50.07
32759;BME280;19125;52.360;9.974;2023-03-22T09:01:55;86983.06;;;-145.17;49.62
32759;BME280;19125;52.360;9.974;2023-03-22T09:04:20;86965.22;;;-145.17;48.94
32759;BME280;19125;52.360;9.974;2023-03-22T09:06:45;86943.38;;;-145.17;48.82
32759;BME280;19125;52.360;9.974;2023-03-22T09:09:11;86949.34;;;-145.17;48.89
32759;BME280;19125;52.360;9.974;2023-03-22T09:11:37;86937.44;;;-145.17;49.17
32759;BME280;19125;52.360;9.974;2023-03-22T09:14:04;86929.47;;;-145.17;49.04
32759;BME280;19125;52.360;9.974;2023-03-22T09:16:29;86909.63;;;-145.17;49.04
32759;BME280;19125;52.360;9.974;2023-03-22T09:18:55;86907.66;;;-145.17;49.35
32759;BME280;19125;52.360;9.974;2023-03-22T09:21:21;86877.88;;;-145.17;49.23
32759;BME280;19125;52.360;9.974;2023-03-22T09:23:46;86842.16;;;-145.17;48.43
32759;BME280;19125;52.360;9.974;2023-03-22T09:26:12;86818.34;;;-145.17;48.30
32759;BME280;19125;52.360;9.974;2023-03-22T09:28:37;86814.38;;;-145.17;47.83
32759;BME280;19125;52.360;9.974;2023-03-22T09:31:05;86770.72;;;-145.17;47.72
32759;BME280;19125;52.360;9.974;2023-03-22T09:33:32;86734.97;;;-145.17;47.40
32759;BME280;19125;52.360;9.974;2023-03-22T09:35:57;86711.16;;;-145.17;47.00
32759;BME280;19125;52.360;9.974;2023-03-22T09:38:23;86687.34;;;-145.17;46.98
32759;BME280;19125;52.360;9.974;2023-03-22T09:40:52;86738.94;;;-145.17;46.65
32759;BME280;19125;52.360;9.974;2023-03-22T09:43:29;86715.13;;;-145.17;45.94
32759;BME280;19125;52.360;9.974;2023-03-22T09:45:57;86673.47;;;-145.17;46.18
32759;BME280;19125;52.360;9.974;2023-03-22T09:48:28;86604.00;;;-145.17;45.71
32759;BME280;19125;52.360;9.974;2023-03-22T09:50:55;86604.00;;;-145.17;45.35
32759;BME280;19125;52.360;9.974;2023-03-22T09:53:23;86592.09;;;-145.17;44.51
32759;BME280;19125;52.360;9.974;2023-03-22T09:56:16;86576.22;;;-145.17;44.36
32759;BME280;19125;52.360;9.974;2023-03-22T09:58:51;86540.50;;;-145.17;44.31
32759;BME280;19125;52.360;9.974;2023-03-22T10:12:41;86429.34;;;-145.17;42.22
32759;BME280;19125;52.360;9.974;2023-03-22T10:15:52;86379.75;;;-145.17;42.67
32759;BME280;19125;52.360;9.974;2023-03-22T10:17:59;86463.09;;;-145.17;42.65
32759;BME280;19125;52.360;9.974;2023-03-22T10:20:36;86475.00;;;-145.17;42.73
32759;BME280;19125;52.360;9.974;2023-03-22T10:23:05;86502.78;;;-145.17;42.87
32759;BME280;19125;52.360;9.974;2023-03-22T10:25:37;86536.53;;;-145.17;42.84
32759;BME280;19125;52.360;9.974;2023-03-22T10:28:15;86473.03;;;-145.17;43.12
32759;BME280;19125;52.360;9.974;2023-03-22T10:30:43;86433.31;;;-145.17;42.97
32759;BME280;19125;52.360;9.974;2023-03-22T10:33:20;86369.81;;;-145.17;42.51
32759;BME280;19125;52.360;9.974;2023-03-22T10:35:48;86306.31;;;-145.17;41.50
32759;BME280;19125;52.360;9.974;2023-03-22T10:38:21;86266.63;;;-145.17;40.81
32759;BME280;19125;52.360;9.974;2023-03-22T10:40:48;86262.66;;;-145.17;40.47
32759;BME280;19125;52.360;9.974;2023-03-22T10:43:22;86264.66;;;-145.17;40.75
32759;BME280;19125;52.360;9.974;2023-03-22T10:45:51;86262.66;;;-145.17;40.17
32759;BME280;19125;52.360;9.974;2023-03-22T10:48:27;86254.72;;;-145.17;39.77
32759;BME280;19125;52.360;9.974;2023-03-22T10:50:55;86246.78;;;-145.17;40.04
32759;BME280;19125;52.360;9.974;2023-03-22T10:55:50;86179.31;;;-145.17;39.68
32759;BME280;19125;52.360;9.974;2023-03-22T10:58:18;86173.38;;;-145.17;39.09
32759;BME280;19125;52.360;9.974;2023-03-22T11:06:22;86123.75;;;-145.17;38.53
32759;BME280;19125;52.360;9.974;2023-03-22T11:08:59;86094.00;;;-145.17;38.27
32759;BME280;19125;52.360;9.974;2023-03-22T11:11:31;86143.59;;;-145.17;38.55
32759;BME280;19125;52.360;9.974;2023-03-22T11:14:11;86159.47;;;-145.17;38.70
32759;BME280;19125;52.360;9.974;2023-03-22T11:19:47;86165.44;;;-145.17;38.75
32759;BME280;19125;52.360;9.974;2023-03-22T11:24:51;86167.41;;;-145.17;38.87
32759;BME280;19125;52.360;9.974;2023-03-22T11:27:30;86191.22;;;-145.17;38.69
32759;BME280;19125;52.360;9.974;2023-03-22T11:30:07;86219.00;;;-145.17;38.71
32759;BME280;19125;52.360;9.974;2023-03-22T11:32:37;86135.66;;;-145.17;38.64
32759;BME280;19125;52.360;9.974;2023-03-22T11:35:11;86183.28;;;-145.17;39.03
32759;BME280;19125;52.360;9.974;2023-03-22T11:40:13;86179.31;;;-145.17;39.09
32759;BME280;19125;52.360;9.974;2023-03-22T11:42:39;86115.81;;;-145.17;39.11
32759;BME280;19125;52.360;9.974;2023-03-22T11:45:06;86161.47;;;-145.17;38.61
32759;BME280;19125;52.360;9.974;2023-03-22T11:47:36;86115.81;;;-145.17;38.90
32759;BME280;19125;52.360;9.974;2023-03-22T11:50:05;86099.94;;;-145.17;38.86
32759;BME280;19125;52.360;9.974;2023-03-22T11:52:31;86103.91;;;-145.17;37.77
32759;BME280;19125;52.360;9.974;2023-03-22T11:54:58;86099.94;;;-145.17;38.50
32759;BME280;19125;52.360;9.974;2023-03-22T11:57:26;86127.72;;;-145.17;38.39
32759;BME280;19125;52.360;9.974;2023-03-22T11:59:58;86086.06;;;-145.17;37.79
32759;BME280;19125;52.360;9.974;2023-03-22T12:02:33;86101.94;;;-145.17;37.75
32759;BME280;19125;52.360;9.974;2023-03-22T12:07:45;86115.81;;;-145.17;38.27
32759;BME280;19125;52.360;9.974;2023-03-22T12:10:21;86094.00;;;-145.17;38.48
32759;BME280;19125;52.360;9.974;2023-03-22T12:12:57;86074.16;;;-145.17;38.01
32759;BME280;19125;52.360;9.974;2023-03-22T12:15:30;86052.31;;;-145.17;38.05
32759;BME280;19125;52.360;9.974;2023-03-22T12:18:37;86072.16;;;-145.17;37.25
32759;BME280;19125;52.360;9.974;2023-03-22T12:21:08;86064.22;;;-145.17;37.04
32759;BME280;19125;52.360;9.974;2023-03-22T12:23:34;86040.41;;;-145.17;37.25
32759;BME280;19125;52.360;9.974;2023-03-22T12:26:11;86054.31;;;-145.17;37.11
32759;BME280;19125;52.360;9.974;2023-03-22T12:28:54;86111.84;;;-145.17;37.45
32759;BME280;19125;52.360;9.974;2023-03-22T12:31:30;86115.81;;;-145.17;37.44
32759;BME280;19125;52.360;9.974;2023-03-22T12:34:02;86048.34;;;-145.17;37.97
32759;BME280;19125;52.360;9.974;2023-03-22T12:36:48;86024.53;;;-145.17;36.79
32759;BME280;19125;52.360;9.974;2023-03-22T12:39:49;86000.72;;;-145.17;35.88
32759;BME280;19125;52.360;9.974;2023-03-22T12:42:26;86024.53;;;-145.17;35.40
32759;BME280;19125;52.360;9.974;2023-03-22T12:45:02;86024.53;;;-145.17;35.10
32759;BME280;19125;52.360;9.974;2023-03-22T12:47:38;86032.47;;;-145.17;35.16
32759;BME280;19125;52.360;9.974;2023-03-22T12:50:16;86052.31;;;-145.17;35.43
32759;BME280;19125;52.360;9.974;2023-03-22T12:52:50;86024.53;;;-145.17;35.75
32759;BME280;19125;52.360;9.974;2023-03-22T12:55:27;86012.63;;;-145.17;35.40
32759;BME280;19125;52.360;9.974;2023-03-22T12:57:55;86034.47;;;-145.17;34.94
32759;BME280;19125;52.360;9.974;2023-03-22T13:00:26;86046.38;;;-145.17;35.09
32759;BME280;19125;52.360;9.974;2023-03-22T13:02:58;86080.09;;;-145.17;35.60
32759;BME280;19125;52.360;9.974;2023-03-22T13:05:32;86084.06;;;-145.17;35.61
32759;BME280;19125;52.360;9.974;2023-03-22T13:07:57;86092.00;;;-145.17;36.10
32759;BME280;19125;52.360;9.974;2023-03-22T13:16:16;86060.25;;;-145.17;35.60
32759;BME280;19125;52.360;9.974;2023-03-22T13:26:43;86062.25;;;-145.17;35.33
32759;BME280;19125;52.360;9.974;2023-03-22T13:31:59;86097.97;;;-145.17;35.96
32759;BME280;19125;52.360;9.974;2023-03-22T13:34:39;86058.28;;;-145.17;36.07
32759;BME280;19125;52.360;9.974;2023-03-22T13:37:20;86072.16;;;-145.17;35.46
32759;BME280;19125;52.360;9.974;2023-03-22T13:39:49;86092.00;;;-145.17;35.44
32759;BME280;19125;52.360;9.974;2023-03-22T13:42:17;86046.38;;;-145.17;35.75
32759;BME280;19125;52.360;9.974;2023-03-22T13:44:44;86056.28;;;-145.17;35.91
32759;BME280;19125;52.360;9.974;2023-03-22T13:47:34;86026.53;;;-145.17;36.13
32759;BME280;19125;52.360;9.974;2023-03-22T13:50:04;86026.53;;;-145.17;36.16
32759;BME280;19125;52.360;9.974;2023-03-22T13:52:41;86026.53;;;-145.17;36.14
32759;BME280;19125;52.360;9.974;2023-03-22T13:56:04;86117.81;;;-145.17;37.28
32759;BME280;19125;52.360;9.974;2023-03-22T14:03:52;86175.34;;;-145.17;38.61
32759;BME280;19125;52.360;9.974;2023-03-22T14:06:23;86195.19;;;-145.17;38.78
32759;BME280;19125;52.360;9.974;2023-03-22T14:08:52;86189.25;;;-145.17;38.47
32759;BME280;19125;52.360;9.974;2023-03-22T14:11:46;86217.03;;;-145.17;38.73
32759;BME280;19125;52.360;9.974;2023-03-22T14:14:14;86254.72;;;-145.17;39.32
32759;BME280;19125;52.360;9.974;2023-03-22T14:16:49;86228.94;;;-145.17;39.73
32759;BME280;19125;52.360;9.974;2023-03-22T14:19:22;86286.47;;;-145.17;40.07
32759;BME280;19125;52.360;9.974;2023-03-22T14:21:51;86286.47;;;-145.17;40.75